PWSweather.com
Personal Weather Stations
Station Observations
SHAHALMS1
Eftra, Falkenberg, HA

EftraFalkenberg, HA

Lat: 56.85, Lon: 12.65

Elevation: 140

Station Type:

http://hem.passagen.se/risarp101

High Low Average
Temperature 44.8°F7.1°C 37.4°F3.0°C 39.9°F4.4°C
Dew Point 42.7°F5.9°C 35.2°F1.8°C 37.8°F3.2°C
Winds 13.6 mph 21.9 kmh Calm Calm 5.0 mph ENE8.0 kmh ENE
Wind Gusts 20.4 mph32.8 kmh -- 8.0 mph12.9 kmh
Humidity 93% 91% 92%
Pressure 29.36 in994.2 mb 29.18 in988.1 mb -
Precipitation 0.34 in8.6 mm - -
Hour Temp Dew Point Humidity Winds Wind Gusts Pressure Precip Precip Rate Daily Precip Total
12:00 AM 37.4°F3.0°C 35.3°F1.8°C 92% 9.3 mph E15.0 kmh E 17.9 mph28.8 kmh 29.36 in994.2 mb 0.00 in0.0 mm 0.00 in0.0 mm 0.00 in0.0 mm
12:15 AM 37.6°F3.1°C 35.5°F1.9°C 92% 9.0 mph E14.5 kmh E 15.7 mph25.3 kmh 29.36 in994.2 mb 0.00 in0.0 mm 0.00 in0.0 mm 0.00 in0.0 mm
12:30 AM 37.6°F3.1°C 35.5°F1.9°C 92% 8.9 mph E14.3 kmh E 14.0 mph22.5 kmh 29.36 in994.2 mb 0.00 in0.0 mm 0.00 in0.0 mm 0.00 in0.0 mm
12:45 AM 37.6°F3.1°C 35.2°F1.8°C 91% 6.6 mph E10.6 kmh E 10.4 mph16.7 kmh 29.36 in994.2 mb 0.00 in0.0 mm 0.00 in0.0 mm 0.00 in0.0 mm
01:00 AM 37.8°F3.2°C 35.6°F2.0°C 92% 4.2 mph E6.8 kmh E 8.9 mph14.3 kmh 29.36 in994.2 mb 0.00 in0.0 mm 0.00 in0.0 mm 0.00 in0.0 mm
01:15 AM 38.7°F3.7°C 36.5°F2.5°C 92% 6.1 mph E9.8 kmh E 11.8 mph19.0 kmh 29.33 in993.2 mb 0.00 in0.0 mm 0.00 in0.0 mm 0.00 in0.0 mm
01:30 AM 39.0°F3.9°C 36.9°F2.7°C 92% 8.8 mph E14.2 kmh E 15.7 mph25.3 kmh 29.30 in992.2 mb 0.00 in0.0 mm 0.00 in0.0 mm 0.00 in0.0 mm
01:45 AM 39.0°F3.9°C 36.9°F2.7°C 92% 7.7 mph E12.4 kmh E 11.8 mph19.0 kmh 29.36 in994.2 mb 0.00 in0.0 mm 0.00 in0.0 mm 0.00 in0.0 mm
02:00 AM 39.0°F3.9°C 36.9°F2.7°C 92% 7.5 mph E12.1 kmh E 11.1 mph17.9 kmh 29.33 in993.2 mb 0.00 in0.0 mm 0.00 in0.0 mm 0.00 in0.0 mm
02:15 AM 39.2°F4.0°C 37.1°F2.8°C 92% 8.3 mph E13.4 kmh E 14.0 mph22.5 kmh 29.33 in993.2 mb 0.00 in0.0 mm 0.00 in0.0 mm 0.00 in0.0 mm
02:30 AM 39.2°F4.0°C 37.1°F2.8°C 92% 8.9 mph E14.3 kmh E 15.4 mph24.8 kmh 29.30 in992.2 mb 0.00 in0.0 mm 0.00 in0.0 mm 0.00 in0.0 mm
02:45 AM 39.2°F4.0°C 37.1°F2.8°C 92% 7.9 mph E12.7 kmh E 10.7 mph17.2 kmh 29.30 in992.2 mb 0.06 in1.5 mm 0.24 in6.1 mm 0.06 in1.5 mm
03:00 AM 39.0°F3.9°C 36.9°F2.7°C 92% 7.7 mph E12.4 kmh E 12.5 mph20.1 kmh 29.27 in991.2 mb 0.06 in1.5 mm 0.00 in0.0 mm 0.06 in1.5 mm
03:15 AM 39.2°F4.0°C 37.1°F2.8°C 92% 7.2 mph E11.6 kmh E 11.1 mph17.9 kmh 29.27 in991.2 mb 0.06 in1.5 mm 0.00 in0.0 mm 0.06 in1.5 mm
03:30 AM 39.4°F4.1°C 37.2°F2.9°C 92% 6.9 mph E11.1 kmh E 11.1 mph17.9 kmh 29.27 in991.2 mb 0.06 in1.5 mm 0.00 in0.0 mm 0.06 in1.5 mm
03:45 AM 39.0°F3.9°C 36.9°F2.7°C 92% 7.7 mph E12.4 kmh E 10.4 mph16.7 kmh 29.24 in990.2 mb 0.00 in0.0 mm 0.00 in0.0 mm 0.06 in1.5 mm
04:00 AM 39.0°F3.9°C 36.9°F2.7°C 92% 7.7 mph E12.4 kmh E 10.4 mph16.7 kmh 29.24 in990.2 mb 0.00 in0.0 mm 0.00 in0.0 mm 0.06 in1.5 mm
04:15 AM 39.2°F4.0°C 37.1°F2.8°C 92% 8.6 mph E13.8 kmh E 13.6 mph21.9 kmh 29.27 in991.2 mb 0.00 in0.0 mm 0.00 in0.0 mm 0.06 in1.5 mm
04:30 AM 39.4°F4.1°C 37.5°F3.1°C 93% 9.7 mph ESE15.6 kmh ESE 16.8 mph27.0 kmh 29.27 in991.2 mb 0.00 in0.0 mm 0.00 in0.0 mm 0.06 in1.5 mm
04:45 AM 39.2°F4.0°C 37.1°F2.8°C 92% 9.8 mph SE15.8 kmh SE 16.1 mph25.9 kmh 29.27 in991.2 mb 0.00 in0.0 mm 0.00 in0.0 mm 0.06 in1.5 mm
05:00 AM 39.4°F4.1°C 37.2°F2.9°C 92% 12.0 mph E19.3 kmh E 16.5 mph26.6 kmh 29.27 in991.2 mb 0.00 in0.0 mm 0.00 in0.0 mm 0.06 in1.5 mm
05:15 AM 39.6°F4.2°C 37.4°F3.0°C 92% 10.7 mph ESE17.2 kmh ESE 17.2 mph27.7 kmh 29.27 in991.2 mb 0.05 in1.3 mm 0.20 in5.1 mm 0.10 in2.5 mm
05:31 AM 39.7°F4.3°C 37.9°F3.3°C 93% 11.3 mph SE18.2 kmh SE 20.0 mph32.2 kmh 29.27 in991.2 mb 0.05 in1.3 mm 0.00 in0.0 mm 0.10 in2.5 mm
05:45 AM 39.9°F4.4°C 38.1°F3.4°C 93% 11.2 mph ESE18.0 kmh ESE 17.2 mph27.7 kmh 29.27 in991.2 mb 0.05 in1.3 mm 0.00 in0.0 mm 0.10 in2.5 mm
06:00 AM 39.6°F4.2°C 37.4°F3.0°C 92% 7.5 mph ESE12.1 kmh ESE 12.5 mph20.1 kmh 29.24 in990.2 mb 0.09 in2.3 mm 0.05 in1.3 mm 0.15 in3.8 mm
06:15 AM 39.0°F3.9°C 36.9°F2.7°C 92% 6.6 mph E10.6 kmh E 10.0 mph16.1 kmh 29.24 in990.2 mb 0.05 in1.3 mm 0.00 in0.0 mm 0.15 in3.8 mm
06:30 AM 38.7°F3.7°C 36.5°F2.5°C 92% 9.1 mph E14.6 kmh E 13.6 mph21.9 kmh 29.24 in990.2 mb 0.05 in1.3 mm 0.00 in0.0 mm 0.15 in3.8 mm
06:45 AM 38.8°F3.8°C 37.0°F2.8°C 93% 9.6 mph E15.4 kmh E 14.0 mph22.5 kmh 29.24 in990.2 mb 0.05 in1.3 mm 0.00 in0.0 mm 0.15 in3.8 mm
07:00 AM 39.0°F3.9°C 37.2°F2.9°C 93% 10.4 mph ESE16.7 kmh ESE 15.7 mph25.3 kmh 29.24 in990.2 mb 0.05 in1.3 mm 0.00 in0.0 mm 0.20 in5.1 mm
07:15 AM 39.0°F3.9°C 37.2°F2.9°C 93% 8.9 mph ESE14.3 kmh ESE 12.9 mph20.8 kmh 29.24 in990.2 mb 0.05 in1.3 mm 0.00 in0.0 mm 0.20 in5.1 mm
07:30 AM 38.8°F3.8°C 37.0°F2.8°C 93% 9.8 mph E15.8 kmh E 15.4 mph24.8 kmh 29.24 in990.2 mb 0.09 in2.3 mm 0.16 in4.1 mm 0.24 in6.1 mm
07:45 AM 38.3°F3.5°C 36.2°F2.3°C 92% 8.4 mph E13.5 kmh E 11.8 mph19.0 kmh 29.24 in990.2 mb 0.09 in2.3 mm 0.00 in0.0 mm 0.24 in6.1 mm
08:00 AM 38.1°F3.4°C 36.3°F2.4°C 93% 8.1 mph E13.0 kmh E 12.2 mph19.6 kmh 29.24 in990.2 mb 0.05 in1.3 mm 0.00 in0.0 mm 0.24 in6.1 mm
08:15 AM 38.3°F3.5°C 36.5°F2.5°C 93% 8.6 mph E13.8 kmh E 11.8 mph19.0 kmh 29.24 in990.2 mb 0.05 in1.3 mm 0.00 in0.0 mm 0.24 in6.1 mm
08:30 AM 38.5°F3.6°C 36.6°F2.6°C 93% 10.0 mph E16.1 kmh E 14.0 mph22.5 kmh 29.27 in991.2 mb 0.00 in0.0 mm 0.00 in0.0 mm 0.24 in6.1 mm
08:45 AM 38.7°F3.7°C 36.8°F2.7°C 93% 8.5 mph E13.7 kmh E 11.8 mph19.0 kmh 29.27 in991.2 mb 0.00 in0.0 mm 0.00 in0.0 mm 0.24 in6.1 mm
09:00 AM 38.5°F3.6°C 36.6°F2.6°C 93% 8.5 mph E13.7 kmh E 13.6 mph21.9 kmh 29.27 in991.2 mb 0.00 in0.0 mm 0.00 in0.0 mm 0.24 in6.1 mm
09:15 AM 38.7°F3.7°C 36.8°F2.7°C 93% 9.2 mph E14.8 kmh E 14.0 mph22.5 kmh 29.27 in991.2 mb 0.00 in0.0 mm 0.00 in0.0 mm 0.24 in6.1 mm
09:30 AM 39.0°F3.9°C 37.2°F2.9°C 93% 9.8 mph ESE15.8 kmh ESE 15.4 mph24.8 kmh 29.27 in991.2 mb 0.00 in0.0 mm 0.00 in0.0 mm 0.24 in6.1 mm
09:45 AM 39.2°F4.0°C 37.3°F2.9°C 93% 13.6 mph ESE21.9 kmh ESE 20.0 mph32.2 kmh 29.27 in991.2 mb 0.05 in1.3 mm 0.20 in5.1 mm 0.29 in7.4 mm
10:00 AM 39.2°F4.0°C 37.3°F2.9°C 93% 11.8 mph SE19.0 kmh SE 20.4 mph32.8 kmh 29.27 in991.2 mb 0.05 in1.3 mm 0.00 in0.0 mm 0.29 in7.4 mm
10:15 AM 39.2°F4.0°C 37.3°F2.9°C 93% 11.3 mph ESE18.2 kmh ESE 17.2 mph27.7 kmh 29.27 in991.2 mb 0.10 in2.5 mm 0.20 in5.1 mm 0.34 in8.6 mm
10:30 AM 39.2°F4.0°C 37.3°F2.9°C 93% 6.6 mph E10.6 kmh E 14.0 mph22.5 kmh 29.24 in990.2 mb 0.10 in2.5 mm 0.00 in0.0 mm 0.34 in8.6 mm
10:45 AM 38.8°F3.8°C 37.0°F2.8°C 93% 4.6 mph E7.4 kmh E 9.7 mph15.6 kmh 29.27 in991.2 mb 0.06 in1.5 mm 0.00 in0.0 mm 0.34 in8.6 mm
11:00 AM 39.0°F3.9°C 37.2°F2.9°C 93% 6.7 mph E10.8 kmh E 9.7 mph15.6 kmh 29.24 in990.2 mb 0.06 in1.5 mm 0.00 in0.0 mm 0.34 in8.6 mm
11:15 AM 39.6°F4.2°C 37.7°F3.2°C 93% 5.6 mph E9.0 kmh E 8.6 mph13.8 kmh 29.24 in990.2 mb 0.00 in0.0 mm 0.00 in0.0 mm 0.34 in8.6 mm
11:30 AM 40.1°F4.5°C 38.2°F3.4°C 93% 7.8 mph E12.6 kmh E 12.9 mph20.8 kmh 29.24 in990.2 mb 0.00 in0.0 mm 0.00 in0.0 mm 0.34 in8.6 mm
11:45 AM 40.5°F4.7°C 38.6°F3.7°C 93% 7.7 mph E12.4 kmh E 10.0 mph16.1 kmh 29.24 in990.2 mb 0.00 in0.0 mm 0.00 in0.0 mm 0.34 in8.6 mm
12:00 PM 40.5°F4.7°C 38.6°F3.7°C 93% 7.1 mph E11.4 kmh E 11.5 mph18.5 kmh 29.24 in990.2 mb 0.00 in0.0 mm 0.00 in0.0 mm 0.34 in8.6 mm
12:15 PM 40.5°F4.7°C 38.6°F3.7°C 93% 7.5 mph E12.1 kmh E 12.2 mph19.6 kmh 29.24 in990.2 mb 0.00 in0.0 mm 0.00 in0.0 mm 0.34 in8.6 mm
12:30 PM 40.8°F4.9°C 39.0°F3.9°C 93% 8.0 mph E12.9 kmh E 12.2 mph19.6 kmh 29.21 in989.2 mb 0.00 in0.0 mm 0.00 in0.0 mm 0.34 in8.6 mm
12:45 PM 41.2°F5.1°C 39.3°F4.1°C 93% 6.9 mph E11.1 kmh E 10.4 mph16.7 kmh 29.24 in990.2 mb 0.00 in0.0 mm 0.00 in0.0 mm 0.34 in8.6 mm
01:00 PM 41.2°F5.1°C 39.3°F4.1°C 93% 3.2 mph E5.1 kmh E 7.5 mph12.1 kmh 29.21 in989.2 mb 0.00 in0.0 mm 0.00 in0.0 mm 0.34 in8.6 mm
01:15 PM 41.2°F5.1°C 39.3°F4.1°C 93% 2.3 mph E3.7 kmh E 6.4 mph10.3 kmh 29.21 in989.2 mb 0.00 in0.0 mm 0.00 in0.0 mm 0.34 in8.6 mm
01:30 PM 41.2°F5.1°C 39.3°F4.1°C 93% 2.1 mph E3.4 kmh E 5.7 mph9.2 kmh 29.21 in989.2 mb 0.00 in0.0 mm 0.00 in0.0 mm 0.34 in8.6 mm
01:45 PM 41.5°F5.3°C 39.7°F4.3°C 93% Calm Calm -- 29.21 in989.2 mb 0.00 in0.0 mm 0.00 in0.0 mm 0.34 in8.6 mm
02:00 PM 41.9°F5.5°C 40.0°F4.4°C 93% 0.2 mph NW0.3 kmh NW 2.1 mph3.4 kmh 29.18 in988.1 mb 0.00 in0.0 mm 0.00 in0.0 mm 0.34 in8.6 mm
02:15 PM 42.4°F5.8°C 40.6°F4.8°C 93% 0.9 mph SE1.4 kmh SE 3.9 mph6.3 kmh 29.24 in990.2 mb 0.00 in0.0 mm 0.00 in0.0 mm 0.34 in8.6 mm
02:30 PM 43.3°F6.3°C 41.5°F5.3°C 93% Calm Calm -- 29.21 in989.2 mb 0.00 in0.0 mm 0.00 in0.0 mm 0.34 in8.6 mm
02:45 PM 44.1°F6.7°C 42.2°F5.7°C 93% Calm Calm -- 29.21 in989.2 mb 0.00 in0.0 mm 0.00 in0.0 mm 0.34 in8.6 mm
03:00 PM 44.6°F7.0°C 42.7°F5.9°C 93% Calm Calm -- 29.21 in989.2 mb 0.00 in0.0 mm 0.00 in0.0 mm 0.34 in8.6 mm
03:15 PM 44.2°F6.8°C 42.1°F5.6°C 92% Calm Calm -- 29.21 in989.2 mb 0.00 in0.0 mm 0.00 in0.0 mm 0.34 in8.6 mm
03:30 PM 44.2°F6.8°C 42.1°F5.6°C 92% Calm Calm -- 29.21 in989.2 mb 0.00 in0.0 mm 0.00 in0.0 mm 0.34 in8.6 mm
03:45 PM 44.8°F7.1°C 42.6°F5.9°C 92% Calm Calm -- 29.21 in989.2 mb 0.00 in0.0 mm 0.00 in0.0 mm 0.34 in8.6 mm
04:00 PM 44.8°F7.1°C 42.6°F5.9°C 92% Calm Calm -- 29.21 in989.2 mb 0.00 in0.0 mm 0.00 in0.0 mm 0.34 in8.6 mm
04:15 PM 43.9°F6.6°C 41.4°F5.2°C 91% Calm Calm -- 29.21 in989.2 mb 0.00 in0.0 mm 0.00 in0.0 mm 0.34 in8.6 mm
04:30 PM 43.3°F6.3°C 40.9°F4.9°C 91% Calm Calm -- 29.21 in989.2 mb 0.00 in0.0 mm 0.00 in0.0 mm 0.34 in8.6 mm
04:45 PM 42.8°F6.0°C 40.4°F4.7°C 91% Calm Calm -- 29.21 in989.2 mb 0.00 in0.0 mm 0.00 in0.0 mm 0.34 in8.6 mm
05:00 PM 42.4°F5.8°C 40.0°F4.4°C 91% 2.0 mph N3.2 kmh N 5.4 mph8.7 kmh 29.21 in989.2 mb 0.00 in0.0 mm 0.00 in0.0 mm 0.34 in8.6 mm
05:15 PM 42.1°F5.6°C 39.6°F4.2°C 91% 1.7 mph NNW2.7 kmh NNW 5.7 mph9.2 kmh 29.21 in989.2 mb 0.00 in0.0 mm 0.00 in0.0 mm 0.34 in8.6 mm
05:30 PM 41.9°F5.5°C 39.5°F4.2°C 91% 1.6 mph N2.6 kmh N 5.0 mph8.0 kmh 29.21 in989.2 mb 0.00 in0.0 mm 0.00 in0.0 mm 0.34 in8.6 mm
05:45 PM 41.5°F5.3°C 39.1°F3.9°C 91% Calm Calm -- 29.21 in989.2 mb 0.00 in0.0 mm 0.00 in0.0 mm 0.34 in8.6 mm
06:00 PM 41.2°F5.1°C 38.8°F3.8°C 91% 4.7 mph N7.6 kmh N 6.1 mph9.8 kmh 29.21 in989.2 mb 0.00 in0.0 mm 0.00 in0.0 mm 0.34 in8.6 mm
06:15 PM 41.0°F5.0°C 38.6°F3.7°C 91% 3.3 mph N5.3 kmh N 6.1 mph9.8 kmh 29.18 in988.1 mb 0.00 in0.0 mm 0.00 in0.0 mm 0.34 in8.6 mm
06:30 PM 40.5°F4.7°C 38.0°F3.3°C 91% Calm Calm -- 29.18 in988.1 mb 0.00 in0.0 mm 0.00 in0.0 mm 0.34 in8.6 mm
06:45 PM 40.1°F4.5°C 38.0°F3.3°C 92% 1.1 mph E1.8 kmh E 4.7 mph7.6 kmh 29.18 in988.1 mb 0.00 in0.0 mm 0.00 in0.0 mm 0.34 in8.6 mm
07:00 PM 40.1°F4.5°C 38.2°F3.4°C 93% Calm Calm -- 29.18 in988.1 mb 0.00 in0.0 mm 0.00 in0.0 mm 0.34 in8.6 mm
07:15 PM 39.7°F4.3°C 37.6°F3.1°C 92% Calm Calm -- 29.21 in989.2 mb 0.00 in0.0 mm 0.00 in0.0 mm 0.34 in8.6 mm
07:30 PM 39.7°F4.3°C 37.6°F3.1°C 92% Calm Calm -- 29.18 in988.1 mb 0.00 in0.0 mm 0.00 in0.0 mm 0.34 in8.6 mm
07:45 PM 39.6°F4.2°C 37.4°F3.0°C 92% Calm Calm -- 29.21 in989.2 mb 0.00 in0.0 mm 0.00 in0.0 mm 0.34 in8.6 mm
08:00 PM 39.4°F4.1°C 37.2°F2.9°C 92% Calm Calm -- 29.21 in989.2 mb 0.00 in0.0 mm 0.00 in0.0 mm 0.34 in8.6 mm
08:15 PM 39.2°F4.0°C 37.1°F2.8°C 92% Calm Calm -- 29.21 in989.2 mb 0.00 in0.0 mm 0.00 in0.0 mm 0.34 in8.6 mm
08:30 PM 39.2°F4.0°C 37.1°F2.8°C 92% Calm Calm -- 29.21 in989.2 mb 0.00 in0.0 mm 0.00 in0.0 mm 0.34 in8.6 mm
08:45 PM 39.0°F3.9°C 36.9°F2.7°C 92% Calm Calm -- 29.21 in989.2 mb 0.00 in0.0 mm 0.00 in0.0 mm 0.34 in8.6 mm
09:00 PM 39.0°F3.9°C 36.9°F2.7°C 92% Calm Calm -- 29.21 in989.2 mb 0.00 in0.0 mm 0.00 in0.0 mm 0.34 in8.6 mm
09:15 PM 38.8°F3.8°C 36.7°F2.6°C 92% Calm Calm -- 29.21 in989.2 mb 0.00 in0.0 mm 0.00 in0.0 mm 0.34 in8.6 mm
09:31 PM 39.2°F4.0°C 37.1°F2.8°C 92% Calm Calm -- 29.21 in989.2 mb 0.00 in0.0 mm 0.00 in0.0 mm 0.34 in8.6 mm
09:45 PM 39.0°F3.9°C 36.9°F2.7°C 92% Calm Calm -- 29.21 in989.2 mb 0.00 in0.0 mm 0.00 in0.0 mm 0.34 in8.6 mm
10:00 PM 38.8°F3.8°C 36.7°F2.6°C 92% Calm Calm -- 29.18 in988.1 mb 0.00 in0.0 mm 0.00 in0.0 mm 0.34 in8.6 mm
10:15 PM 38.5°F3.6°C 36.4°F2.4°C 92% Calm Calm -- 29.18 in988.1 mb 0.00 in0.0 mm 0.00 in0.0 mm 0.34 in8.6 mm
10:30 PM 38.3°F3.5°C 36.2°F2.3°C 92% Calm Calm -- 29.18 in988.1 mb 0.00 in0.0 mm 0.00 in0.0 mm 0.34 in8.6 mm
10:45 PM 38.3°F3.5°C 36.2°F2.3°C 92% Calm Calm -- 29.18 in988.1 mb 0.00 in0.0 mm 0.00 in0.0 mm 0.34 in8.6 mm
11:00 PM 38.3°F3.5°C 36.2°F2.3°C 92% Calm Calm -- 29.18 in988.1 mb 0.00 in0.0 mm 0.00 in0.0 mm 0.34 in8.6 mm
11:15 PM 37.9°F3.3°C 35.8°F2.1°C 92% Calm Calm -- 29.18 in988.1 mb 0.00 in0.0 mm 0.00 in0.0 mm 0.34 in8.6 mm
11:30 PM 37.9°F3.3°C 35.8°F2.1°C 92% Calm Calm -- 29.18 in988.1 mb 0.00 in0.0 mm 0.00 in0.0 mm 0.34 in8.6 mm
11:45 PM 37.8°F3.2°C 35.6°F2.0°C 92% Calm Calm -- 29.18 in988.1 mb 0.00 in0.0 mm 0.00 in0.0 mm 0.34 in8.6 mm